sensor_id;sensor_type;location;lat;lon;timestamp;pressure;altitude;pressure_sealevel;temperature;humidity
52983;BME280;48698;45.736;13.926;2023-03-23T00:01:16;97533.94;;;6.42;100.00
52983;BME280;48698;45.736;13.926;2023-03-23T00:06:20;97443.56;;;5.64;100.00
52983;BME280;48698;45.736;13.926;2023-03-23T00:11:32;97428.41;;;5.19;100.00
52983;BME280;48698;45.736;13.926;2023-03-23T00:16:33;97462.66;;;4.92;100.00
52983;BME280;48698;45.736;13.926;2023-03-23T00:21:37;97535.50;;;5.19;100.00
52983;BME280;48698;45.736;13.926;2023-03-23T00:26:43;97540.84;;;5.16;100.00
52983;BME280;48698;45.736;13.926;2023-03-23T00:31:45;97464.94;;;5.30;100.00
52983;BME280;48698;45.736;13.926;2023-03-23T00:36:51;97540.41;;;6.08;100.00
52983;BME280;48698;45.736;13.926;2023-03-23T00:41:54;97526.91;;;5.93;100.00
52983;BME280;48698;45.736;13.926;2023-03-23T00:47:02;97411.34;;;5.05;100.00
52983;BME280;48698;45.736;13.926;2023-03-23T00:52:05;97483.63;;;5.21;100.00
52983;BME280;48698;45.736;13.926;2023-03-23T00:57:06;97365.47;;;4.32;100.00
52983;BME280;48698;45.736;13.926;2023-03-23T01:02:07;97432.28;;;5.34;100.00
52983;BME280;48698;45.736;13.926;2023-03-23T01:07:07;97251.03;;;4.22;100.00
52983;BME280;48698;45.736;13.926;2023-03-23T01:12:18;97378.75;;;4.56;100.00
52983;BME280;48698;45.736;13.926;2023-03-23T01:17:19;97250.41;;;3.86;100.00
52983;BME280;48698;45.736;13.926;2023-03-23T01:22:21;97421.38;;;5.20;100.00
52983;BME280;48698;45.736;13.926;2023-03-23T01:27:24;97458.41;;;5.40;100.00
52983;BME280;48698;45.736;13.926;2023-03-23T01:32:35;97418.34;;;5.06;100.00
52983;BME280;48698;45.736;13.926;2023-03-23T01:37:40;97431.06;;;5.19;100.00
52983;BME280;48698;45.736;13.926;2023-03-23T01:42:41;97504.78;;;5.70;100.00
52983;BME280;48698;45.736;13.926;2023-03-23T01:47:42;97388.38;;;5.10;100.00
52983;BME280;48698;45.736;13.926;2023-03-23T01:52:43;97250.56;;;4.09;100.00
52983;BME280;48698;45.736;13.926;2023-03-23T01:57:44;97442.22;;;5.00;100.00
52983;BME280;48698;45.736;13.926;2023-03-23T02:02:56;97448.19;;;5.31;100.00
52983;BME280;48698;45.736;13.926;2023-03-23T02:07:59;97347.09;;;4.86;100.00
52983;BME280;48698;45.736;13.926;2023-03-23T02:13:13;97440.50;;;4.99;100.00
52983;BME280;48698;45.736;13.926;2023-03-23T02:18:37;97468.13;;;5.40;100.00
52983;BME280;48698;45.736;13.926;2023-03-23T02:24:01;97380.97;;;4.68;100.00
52983;BME280;48698;45.736;13.926;2023-03-23T02:29:25;97458.25;;;5.20;100.00
52983;BME280;48698;45.736;13.926;2023-03-23T02:34:52;97340.69;;;4.12;100.00
52983;BME280;48698;45.736;13.926;2023-03-23T02:40:06;97454.63;;;4.96;100.00
52983;BME280;48698;45.736;13.926;2023-03-23T02:45:12;97448.66;;;5.17;100.00
52983;BME280;48698;45.736;13.926;2023-03-23T02:50:15;97389.41;;;4.78;100.00
52983;BME280;48698;45.736;13.926;2023-03-23T02:55:18;97255.47;;;3.92;100.00
52983;BME280;48698;45.736;13.926;2023-03-23T03:00:20;97251.56;;;3.77;100.00
52983;BME280;48698;45.736;13.926;2023-03-23T03:05:50;97331.81;;;4.15;100.00
52983;BME280;48698;45.736;13.926;2023-03-23T03:11:10;97119.94;;;3.04;100.00
52983;BME280;48698;45.736;13.926;2023-03-23T03:21:20;97354.28;;;4.25;100.00
52983;BME280;48698;45.736;13.926;2023-03-23T03:26:26;97389.59;;;4.46;100.00
52983;BME280;48698;45.736;13.926;2023-03-23T03:31:31;97421.28;;;4.69;100.00
52983;BME280;48698;45.736;13.926;2023-03-23T03:36:34;97396.06;;;4.34;100.00
52983;BME280;48698;45.736;13.926;2023-03-23T03:41:36;97455.09;;;4.53;100.00
52983;BME280;48698;45.736;13.926;2023-03-23T03:46:37;97427.16;;;4.49;100.00
52983;BME280;48698;45.736;13.926;2023-03-23T03:51:39;97461.34;;;4.49;100.00
52983;BME280;48698;45.736;13.926;2023-03-23T03:56:40;97305.59;;;3.56;100.00
52983;BME280;48698;45.736;13.926;2023-03-23T04:01:42;97343.88;;;3.94;100.00
52983;BME280;48698;45.736;13.926;2023-03-23T04:06:43;97343.00;;;3.94;100.00
52983;BME280;48698;45.736;13.926;2023-03-23T04:11:45;97163.44;;;2.81;100.00
52983;BME280;48698;45.736;13.926;2023-03-23T04:16:46;97248.03;;;3.20;100.00
52983;BME280;48698;45.736;13.926;2023-03-23T04:21:47;97213.00;;;2.90;100.00
52983;BME280;48698;45.736;13.926;2023-03-23T04:26:56;97451.44;;;4.30;100.00
52983;BME280;48698;45.736;13.926;2023-03-23T04:31:57;97336.91;;;3.62;100.00
52983;BME280;48698;45.736;13.926;2023-03-23T04:36:57;97449.59;;;4.32;100.00
52983;BME280;48698;45.736;13.926;2023-03-23T04:41:59;97355.25;;;3.64;100.00
52983;BME280;48698;45.736;13.926;2023-03-23T04:47:01;97322.09;;;3.29;100.00
52983;BME280;48698;45.736;13.926;2023-03-23T04:52:08;97370.75;;;3.73;100.00
52983;BME280;48698;45.736;13.926;2023-03-23T04:57:10;97366.97;;;3.83;100.00
52983;BME280;48698;45.736;13.926;2023-03-23T05:02:13;97450.91;;;3.88;100.00
52983;BME280;48698;45.736;13.926;2023-03-23T05:07:14;97353.81;;;3.52;100.00
52983;BME280;48698;45.736;13.926;2023-03-23T05:12:15;97404.72;;;3.79;100.00
52983;BME280;48698;45.736;13.926;2023-03-23T05:17:16;97392.72;;;3.38;100.00
52983;BME280;48698;45.736;13.926;2023-03-23T05:22:18;97491.44;;;4.41;100.00
52983;BME280;48698;45.736;13.926;2023-03-23T05:27:21;97303.38;;;2.78;100.00
52983;BME280;48698;45.736;13.926;2023-03-23T05:32:22;97421.53;;;3.41;100.00
52983;BME280;48698;45.736;13.926;2023-03-23T05:37:30;97448.09;;;3.61;100.00
52983;BME280;48698;45.736;13.926;2023-03-23T05:42:33;97518.41;;;4.47;100.00
52983;BME280;48698;45.736;13.926;2023-03-23T05:47:35;97307.22;;;3.30;100.00
52983;BME280;48698;45.736;13.926;2023-03-23T05:52:37;97525.41;;;4.47;100.00
52983;BME280;48698;45.736;13.926;2023-03-23T05:57:37;97487.69;;;4.48;100.00
52983;BME280;48698;45.736;13.926;2023-03-23T06:02:39;97362.97;;;3.99;100.00
52983;BME280;48698;45.736;13.926;2023-03-23T06:07:39;97441.22;;;4.48;100.00
52983;BME280;48698;45.736;13.926;2023-03-23T06:12:40;97489.97;;;4.88;100.00
52983;BME280;48698;45.736;13.926;2023-03-23T06:17:41;97350.91;;;4.49;100.00
52983;BME280;48698;45.736;13.926;2023-03-23T06:22:42;97440.19;;;5.34;100.00
52983;BME280;48698;45.736;13.926;2023-03-23T06:27:43;97445.28;;;5.65;100.00
52983;BME280;48698;45.736;13.926;2023-03-23T06:32:44;97552.31;;;6.68;100.00
52983;BME280;48698;45.736;13.926;2023-03-23T06:37:49;97286.06;;;5.49;100.00
52983;BME280;48698;45.736;13.926;2023-03-23T06:42:57;97554.34;;;7.51;100.00
52983;BME280;48698;45.736;13.926;2023-03-23T06:47:59;97512.69;;;7.78;100.00
52983;BME280;48698;45.736;13.926;2023-03-23T06:53:00;97514.38;;;8.01;100.00
52983;BME280;48698;45.736;13.926;2023-03-23T06:58:01;97362.09;;;7.56;100.00
52983;BME280;48698;45.736;13.926;2023-03-23T07:03:01;97542.94;;;9.11;100.00
52983;BME280;48698;45.736;13.926;2023-03-23T07:08:04;97536.41;;;9.72;100.00
52983;BME280;48698;45.736;13.926;2023-03-23T07:13:05;97554.34;;;10.20;100.00
52983;BME280;48698;45.736;13.926;2023-03-23T07:18:06;97542.72;;;10.73;100.00
52983;BME280;48698;45.736;13.926;2023-03-23T07:23:07;97546.84;;;11.58;100.00
52983;BME280;48698;45.736;13.926;2023-03-23T07:28:09;97311.06;;;10.52;100.00
52983;BME280;48698;45.736;13.926;2023-03-23T07:33:11;97277.81;;;10.45;100.00
52983;BME280;48698;45.736;13.926;2023-03-23T07:38:12;97559.88;;;12.24;100.00
52983;BME280;48698;45.736;13.926;2023-03-23T07:43:15;97502.09;;;12.26;100.00
52983;BME280;48698;45.736;13.926;2023-03-23T07:48:17;97291.28;;;11.33;100.00
52983;BME280;48698;45.736;13.926;2023-03-23T07:53:20;97553.19;;;13.19;100.00
52983;BME280;48698;45.736;13.926;2023-03-23T07:58:23;97480.13;;;13.07;100.00
52983;BME280;48698;45.736;13.926;2023-03-23T08:03:25;97551.69;;;13.82;100.00
52983;BME280;48698;45.736;13.926;2023-03-23T08:08:28;97549.19;;;14.20;100.00
52983;BME280;48698;45.736;13.926;2023-03-23T08:13:29;97538.69;;;14.57;100.00
52983;BME280;48698;45.736;13.926;2023-03-23T08:18:31;97288.41;;;13.43;100.00
52983;BME280;48698;45.736;13.926;2023-03-23T08:23:36;97451.88;;;14.87;100.00
52983;BME280;48698;45.736;13.926;2023-03-23T08:28:38;97513.41;;;15.36;100.00
52983;BME280;48698;45.736;13.926;2023-03-23T08:33:40;97554.81;;;15.43;100.00
52983;BME280;48698;45.736;13.926;2023-03-23T08:38:43;97457.41;;;15.10;100.00
52983;BME280;48698;45.736;13.926;2023-03-23T08:43:46;97448.25;;;15.25;100.00
52983;BME280;48698;45.736;13.926;2023-03-23T08:48:57;97513.06;;;16.25;100.00
52983;BME280;48698;45.736;13.926;2023-03-23T08:53:59;97444.69;;;15.84;100.00
52983;BME280;48698;45.736;13.926;2023-03-23T08:59:01;97368.19;;;15.93;100.00
52983;BME280;48698;45.736;13.926;2023-03-23T09:04:02;97502.63;;;16.79;100.00
52983;BME280;48698;45.736;13.926;2023-03-23T09:09:13;97426.97;;;16.29;100.00
52983;BME280;48698;45.736;13.926;2023-03-23T09:14:15;97515.78;;;16.36;100.00
52983;BME280;48698;45.736;13.926;2023-03-23T09:19:17;97540.28;;;16.66;100.00
52983;BME280;48698;45.736;13.926;2023-03-23T09:24:18;97452.41;;;16.24;100.00
52983;BME280;48698;45.736;13.926;2023-03-23T09:29:20;97512.38;;;16.34;100.00
52983;BME280;48698;45.736;13.926;2023-03-23T09:34:22;97480.81;;;16.94;100.00
52983;BME280;48698;45.736;13.926;2023-03-23T09:39:24;97527.66;;;17.68;100.00
52983;BME280;48698;45.736;13.926;2023-03-23T09:44:51;97517.38;;;17.51;99.01
52983;BME280;48698;45.736;13.926;2023-03-23T09:50:07;97530.50;;;17.98;96.87
52983;BME280;48698;45.736;13.926;2023-03-23T09:55:15;97524.97;;;17.46;97.13
52983;BME280;48698;45.736;13.926;2023-03-23T10:05:51;97529.22;;;18.14;93.25
52983;BME280;48698;45.736;13.926;2023-03-23T10:11:03;97539.47;;;17.54;100.00
52983;BME280;48698;45.736;13.926;2023-03-23T10:16:18;97539.34;;;17.67;97.66
52983;BME280;48698;45.736;13.926;2023-03-23T10:21:23;97403.88;;;16.84;92.38
52983;BME280;48698;45.736;13.926;2023-03-23T10:32:14;97521.50;;;18.93;85.23
52983;BME280;48698;45.736;13.926;2023-03-23T10:37:32;97532.69;;;18.68;83.34
52983;BME280;48698;45.736;13.926;2023-03-23T10:42:39;97523.16;;;20.63;82.86
52983;BME280;48698;45.736;13.926;2023-03-23T10:47:45;97369.44;;;18.99;80.06
52983;BME280;48698;45.736;13.926;2023-03-23T10:52:59;97511.94;;;20.30;76.93
52983;BME280;48698;45.736;13.926;2023-03-23T10:58:05;97517.94;;;19.74;74.00
52983;BME280;48698;45.736;13.926;2023-03-23T11:03:24;97512.78;;;20.59;72.57
52983;BME280;48698;45.736;13.926;2023-03-23T11:14:03;97506.22;;;20.13;70.92
52983;BME280;48698;45.736;13.926;2023-03-23T11:19:15;97468.16;;;19.78;75.41
52983;BME280;48698;45.736;13.926;2023-03-23T11:24:16;97504.28;;;19.36;73.82
52983;BME280;48698;45.736;13.926;2023-03-23T11:29:27;97503.28;;;19.27;76.84
52983;BME280;48698;45.736;13.926;2023-03-23T11:34:34;97453.94;;;18.25;78.48
52983;BME280;48698;45.736;13.926;2023-03-23T11:39:47;97441.72;;;18.21;76.10
52983;BME280;48698;45.736;13.926;2023-03-23T11:44:48;97259.66;;;17.51;77.27
52983;BME280;48698;45.736;13.926;2023-03-23T11:50:10;97510.63;;;18.74;77.85
52983;BME280;48698;45.736;13.926;2023-03-23T11:55:20;97287.50;;;17.18;77.86
52983;BME280;48698;45.736;13.926;2023-03-23T12:00:23;97263.84;;;17.12;76.06
52983;BME280;48698;45.736;13.926;2023-03-23T12:05:31;97500.31;;;19.30;75.32
52983;BME280;48698;45.736;13.926;2023-03-23T12:10:36;97501.09;;;19.42;75.10
52983;BME280;48698;45.736;13.926;2023-03-23T12:16:09;97498.94;;;19.05;71.00
52983;BME280;48698;45.736;13.926;2023-03-23T12:27:09;97413.75;;;18.02;74.94
52983;BME280;48698;45.736;13.926;2023-03-23T12:38:00;97478.50;;;17.99;74.50
52983;BME280;48698;45.736;13.926;2023-03-23T12:48:35;97485.34;;;18.24;75.91
52983;BME280;48698;45.736;13.926;2023-03-23T12:53:43;97497.56;;;18.17;74.33
52983;BME280;48698;45.736;13.926;2023-03-23T12:58:55;97251.50;;;16.89;72.93
52983;BME280;48698;45.736;13.926;2023-03-23T13:04:00;97483.47;;;18.36;72.67
52983;BME280;48698;45.736;13.926;2023-03-23T13:14:44;97477.66;;;19.02;73.12
52983;BME280;48698;45.736;13.926;2023-03-23T13:30:34;97465.00;;;19.24;72.61
52983;BME280;48698;45.736;13.926;2023-03-23T13:35:36;97433.19;;;18.98;70.18
52983;BME280;48698;45.736;13.926;2023-03-23T13:40:42;97450.31;;;18.97;66.50
52983;BME280;48698;45.736;13.926;2023-03-23T13:45:46;97444.09;;;18.76;68.48
52983;BME280;48698;45.736;13.926;2023-03-23T13:50:52;97444.78;;;17.95;67.83
52983;BME280;48698;45.736;13.926;2023-03-23T13:56:35;97442.91;;;18.28;72.07
52983;BME280;48698;45.736;13.926;2023-03-23T14:01:39;97434.41;;;18.23;71.84
52983;BME280;48698;45.736;13.926;2023-03-23T14:06:42;97426.25;;;18.34;74.62
52983;BME280;48698;45.736;13.926;2023-03-23T14:12:02;97430.75;;;18.65;76.03
52983;BME280;48698;45.736;13.926;2023-03-23T14:17:14;97446.78;;;19.06;77.39
52983;BME280;48698;45.736;13.926;2023-03-23T14:22:23;97394.44;;;18.59;72.21
52983;BME280;48698;45.736;13.926;2023-03-23T14:27:24;97391.53;;;18.21;67.61
52983;BME280;48698;45.736;13.926;2023-03-23T14:32:27;97398.34;;;18.04;66.74
52983;BME280;48698;45.736;13.926;2023-03-23T14:37:28;97444.75;;;18.27;67.69
52983;BME280;48698;45.736;13.926;2023-03-23T14:42:31;97450.19;;;18.37;68.20
52983;BME280;48698;45.736;13.926;2023-03-23T14:47:35;97436.47;;;18.40;70.05
52983;BME280;48698;45.736;13.926;2023-03-23T14:52:38;97442.47;;;18.23;65.95
52983;BME280;48698;45.736;13.926;2023-03-23T14:57:43;97424.09;;;18.28;65.68
52983;BME280;48698;45.736;13.926;2023-03-23T15:02:49;97379.47;;;18.16;67.26
52983;BME280;48698;45.736;13.926;2023-03-23T15:07:53;97350.84;;;17.73;69.57
52983;BME280;48698;45.736;13.926;2023-03-23T15:12:55;97448.28;;;18.28;66.46
52983;BME280;48698;45.736;13.926;2023-03-23T15:17:59;97436.09;;;18.24;68.38
52983;BME280;48698;45.736;13.926;2023-03-23T15:23:07;97438.59;;;18.16;66.98
52983;BME280;48698;45.736;13.926;2023-03-23T15:28:18;97299.78;;;17.21;67.45
52983;BME280;48698;45.736;13.926;2023-03-23T15:33:36;97400.25;;;17.93;66.43
52983;BME280;48698;45.736;13.926;2023-03-23T15:38:37;97438.19;;;18.20;66.46
52983;BME280;48698;45.736;13.926;2023-03-23T15:43:54;97427.91;;;18.25;67.32
52983;BME280;48698;45.736;13.926;2023-03-23T15:53:58;97360.03;;;18.53;66.14
52983;BME280;48698;45.736;13.926;2023-03-23T15:58:59;97405.00;;;17.89;66.36
52983;BME280;48698;45.736;13.926;2023-03-23T16:09:13;97312.38;;;16.55;70.11
52983;BME280;48698;45.736;13.926;2023-03-23T16:14:26;97346.97;;;16.80;70.63
52983;BME280;48698;45.736;13.926;2023-03-23T16:19:29;97421.97;;;17.58;72.10
52983;BME280;48698;45.736;13.926;2023-03-23T16:24:31;97409.50;;;17.03;74.17
52983;BME280;48698;45.736;13.926;2023-03-23T16:29:34;97449.00;;;17.23;74.89
52983;BME280;48698;45.736;13.926;2023-03-23T16:34:41;97391.94;;;16.99;77.58
52983;BME280;48698;45.736;13.926;2023-03-23T16:39:47;97411.31;;;16.91;79.46
52983;BME280;48698;45.736;13.926;2023-03-23T16:45:00;97366.91;;;16.54;80.24
52983;BME280;48698;45.736;13.926;2023-03-23T16:50:04;97454.50;;;16.99;81.62
52983;BME280;48698;45.736;13.926;2023-03-23T16:55:10;97423.00;;;16.90;81.85
52983;BME280;48698;45.736;13.926;2023-03-23T17:00:15;97393.69;;;17.32;81.39
52983;BME280;48698;45.736;13.926;2023-03-23T17:05:23;97471.16;;;18.01;80.21
52983;BME280;48698;45.736;13.926;2023-03-23T17:10:27;97321.13;;;16.24;81.31
52983;BME280;48698;45.736;13.926;2023-03-23T17:15:31;97135.03;;;14.47;85.58
52983;BME280;48698;45.736;13.926;2023-03-23T17:20:34;97488.00;;;15.78;94.17
52983;BME280;48698;45.736;13.926;2023-03-23T17:25:37;97473.50;;;14.84;100.00
52983;BME280;48698;45.736;13.926;2023-03-23T17:30:42;97485.09;;;13.54;100.00
52983;BME280;48698;45.736;13.926;2023-03-23T17:35:46;97477.75;;;12.32;100.00
52983;BME280;48698;45.736;13.926;2023-03-23T17:40:58;97370.78;;;11.22;100.00
52983;BME280;48698;45.736;13.926;2023-03-23T17:46:01;97262.53;;;9.86;100.00
52983;BME280;48698;45.736;13.926;2023-03-23T17:51:06;97208.91;;;9.48;100.00
52983;BME280;48698;45.736;13.926;2023-03-23T17:56:13;97476.91;;;10.78;100.00
52983;BME280;48698;45.736;13.926;2023-03-23T18:01:16;97272.59;;;9.64;100.00
52983;BME280;48698;45.736;13.926;2023-03-23T18:06:18;97512.13;;;11.30;100.00
52983;BME280;48698;45.736;13.926;2023-03-23T18:11:22;97391.75;;;10.50;100.00
52983;BME280;48698;45.736;13.926;2023-03-23T18:16:24;97513.16;;;10.79;100.00
52983;BME280;48698;45.736;13.926;2023-03-23T18:21:27;97212.72;;;8.22;100.00
52983;BME280;48698;45.736;13.926;2023-03-23T18:26:30;97206.50;;;7.30;100.00
52983;BME280;48698;45.736;13.926;2023-03-23T18:31:33;97466.81;;;8.96;100.00
52983;BME280;48698;45.736;13.926;2023-03-23T18:36:51;97480.63;;;10.08;100.00
52983;BME280;48698;45.736;13.926;2023-03-23T18:41:54;97304.50;;;9.11;100.00
52983;BME280;48698;45.736;13.926;2023-03-23T18:46:57;97369.81;;;7.81;100.00
52983;BME280;48698;45.736;13.926;2023-03-23T18:52:00;97552.91;;;8.67;100.00
52983;BME280;48698;45.736;13.926;2023-03-23T18:57:02;97307.66;;;7.91;100.00
52983;BME280;48698;45.736;13.926;2023-03-23T19:02:06;97356.31;;;8.63;100.00
52983;BME280;48698;45.736;13.926;2023-03-23T19:07:11;97375.44;;;8.68;100.00
52983;BME280;48698;45.736;13.926;2023-03-23T19:12:13;97494.41;;;9.46;100.00
52983;BME280;48698;45.736;13.926;2023-03-23T19:17:18;97505.47;;;9.00;100.00
52983;BME280;48698;45.736;13.926;2023-03-23T19:22:24;97442.66;;;8.27;100.00
52983;BME280;48698;45.736;13.926;2023-03-23T19:27:27;97566.16;;;8.67;100.00
52983;BME280;48698;45.736;13.926;2023-03-23T19:32:32;97469.41;;;8.60;100.00
52983;BME280;48698;45.736;13.926;2023-03-23T19:37:34;97488.06;;;8.57;100.00
52983;BME280;48698;45.736;13.926;2023-03-23T19:42:37;97342.28;;;7.26;100.00
52983;BME280;48698;45.736;13.926;2023-03-23T19:47:41;97401.47;;;7.62;100.00
52983;BME280;48698;45.736;13.926;2023-03-23T19:52:43;97441.56;;;7.92;100.00
52983;BME280;48698;45.736;13.926;2023-03-23T19:57:46;97307.16;;;7.24;100.00
52983;BME280;48698;45.736;13.926;2023-03-23T20:02:51;97422.00;;;7.56;100.00
52983;BME280;48698;45.736;13.926;2023-03-23T20:08:05;97451.31;;;7.29;100.00
52983;BME280;48698;45.736;13.926;2023-03-23T20:13:09;97584.72;;;8.05;100.00
52983;BME280;48698;45.736;13.926;2023-03-23T20:18:13;97442.25;;;7.15;100.00
52983;BME280;48698;45.736;13.926;2023-03-23T20:23:19;97470.59;;;7.73;100.00
52983;BME280;48698;45.736;13.926;2023-03-23T20:28:23;97451.50;;;7.25;100.00
52983;BME280;48698;45.736;13.926;2023-03-23T20:33:26;97609.22;;;7.66;100.00
52983;BME280;48698;45.736;13.926;2023-03-23T20:38:31;97464.69;;;7.03;100.00
52983;BME280;48698;45.736;13.926;2023-03-23T20:43:38;97604.84;;;8.29;100.00
52983;BME280;48698;45.736;13.926;2023-03-23T20:48:41;97576.28;;;7.75;100.00
52983;BME280;48698;45.736;13.926;2023-03-23T20:53:45;97544.41;;;7.13;100.00
52983;BME280;48698;45.736;13.926;2023-03-23T20:58:48;97340.34;;;6.01;100.00
52983;BME280;48698;45.736;13.926;2023-03-23T21:04:01;97623.94;;;7.28;100.00
52983;BME280;48698;45.736;13.926;2023-03-23T21:09:04;97414.03;;;6.50;100.00
52983;BME280;48698;45.736;13.926;2023-03-23T21:14:09;97603.56;;;6.86;100.00
52983;BME280;48698;45.736;13.926;2023-03-23T21:19:12;97563.09;;;6.85;100.00
52983;BME280;48698;45.736;13.926;2023-03-23T21:24:15;97344.97;;;5.46;100.00
52983;BME280;48698;45.736;13.926;2023-03-23T21:29:18;97537.31;;;6.22;100.00
52983;BME280;48698;45.736;13.926;2023-03-23T21:34:21;97373.56;;;5.32;100.00
52983;BME280;48698;45.736;13.926;2023-03-23T21:39:27;97455.00;;;5.89;100.00
52983;BME280;48698;45.736;13.926;2023-03-23T21:44:39;97451.84;;;5.78;100.00
52983;BME280;48698;45.736;13.926;2023-03-23T21:49:43;97347.84;;;4.89;100.00
52983;BME280;48698;45.736;13.926;2023-03-23T21:54:57;97468.47;;;5.29;100.00
52983;BME280;48698;45.736;13.926;2023-03-23T22:00:00;97445.28;;;5.65;100.00
52983;BME280;48698;45.736;13.926;2023-03-23T22:05:04;97638.25;;;5.73;100.00
52983;BME280;48698;45.736;13.926;2023-03-23T22:10:10;97537.63;;;5.34;100.00
52983;BME280;48698;45.736;13.926;2023-03-23T22:15:13;97526.19;;;5.35;100.00
52983;BME280;48698;45.736;13.926;2023-03-23T22:20:26;97623.81;;;6.11;100.00
52983;BME280;48698;45.736;13.926;2023-03-23T22:25:30;97594.88;;;6.09;100.00
52983;BME280;48698;45.736;13.926;2023-03-23T22:30:34;97350.72;;;4.55;100.00
52983;BME280;48698;45.736;13.926;2023-03-23T22:35:37;97508.22;;;4.94;100.00
52983;BME280;48698;45.736;13.926;2023-03-23T22:40:40;97365.00;;;4.19;100.00
52983;BME280;48698;45.736;13.926;2023-03-23T22:45:44;97559.19;;;5.19;100.00
52983;BME280;48698;45.736;13.926;2023-03-23T22:50:47;97612.28;;;6.13;100.00
52983;BME280;48698;45.736;13.926;2023-03-23T22:55:52;97589.38;;;5.63;100.00
52983;BME280;48698;45.736;13.926;2023-03-23T23:01:09;97609.91;;;5.53;100.00
52983;BME280;48698;45.736;13.926;2023-03-23T23:06:15;97493.47;;;5.16;100.00
52983;BME280;48698;45.736;13.926;2023-03-23T23:11:28;97613.91;;;5.65;100.00
52983;BME280;48698;45.736;13.926;2023-03-23T23:16:31;97559.00;;;5.51;100.00
52983;BME280;48698;45.736;13.926;2023-03-23T23:21:34;97294.66;;;3.99;100.00
52983;BME280;48698;45.736;13.926;2023-03-23T23:26:37;97293.16;;;3.61;100.00
52983;BME280;48698;45.736;13.926;2023-03-23T23:31:39;97350.59;;;3.74;100.00
52983;BME280;48698;45.736;13.926;2023-03-23T23:36:42;97444.31;;;4.33;100.00
52983;BME280;48698;45.736;13.926;2023-03-23T23:41:47;97571.34;;;5.23;100.00
52983;BME280;48698;45.736;13.926;2023-03-23T23:46:50;97468.53;;;4.72;100.00
52983;BME280;48698;45.736;13.926;2023-03-23T23:51:54;97425.03;;;4.33;100.00
52983;BME280;48698;45.736;13.926;2023-03-23T23:57:04;97454.44;;;4.47;100.00
